createdAt,value
2022-09-04T00:04:35.715Z,20.36
2022-09-04T00:10:06.843Z,20.29
2022-09-04T00:15:23.037Z,20.25
2022-09-04T00:20:38.984Z,20.26
2022-09-04T00:25:48.310Z,20.26
2022-09-04T00:31:04.500Z,20.27
2022-09-04T00:36:07.616Z,20.25
2022-09-04T00:41:24.296Z,20.24
2022-09-04T00:46:52.017Z,20.23
2022-09-04T00:52:16.736Z,20.31
2022-09-04T00:57:39.961Z,20.29
2022-09-04T01:03:13.576Z,20.30
2022-09-04T01:09:01.263Z,20.30
2022-09-04T01:14:21.524Z,20.30
2022-09-04T01:19:23.486Z,20.30
2022-09-04T01:24:47.193Z,20.27
2022-09-04T01:30:12.831Z,20.24
2022-09-04T01:35:26.080Z,20.22
2022-09-04T01:41:03.164Z,20.17
2022-09-04T01:46:33.687Z,20.12
2022-09-04T01:51:53.707Z,19.78
2022-09-04T01:57:14.317Z,19.52
2022-09-04T02:02:37.955Z,19.53
2022-09-04T02:07:47.456Z,19.52
2022-09-04T02:13:18.381Z,19.60
2022-09-04T02:18:32.932Z,19.67
2022-09-04T02:23:45.375Z,19.72
2022-09-04T02:29:17.905Z,19.60
2022-09-04T02:34:38.481Z,19.63
2022-09-04T02:40:01.750Z,19.64
2022-09-04T02:45:18.693Z,19.61
2022-09-04T02:50:53.428Z,19.55
2022-09-04T02:56:21.041Z,19.54
2022-09-04T03:01:35.404Z,19.47
2022-09-04T03:06:49.146Z,19.21
2022-09-04T03:11:55.574Z,19.20
2022-09-04T03:17:23.370Z,19.28
2022-09-04T03:22:37.816Z,19.26
2022-09-04T03:27:39.529Z,19.29
2022-09-04T03:32:54.976Z,19.26
2022-09-04T03:38:14.796Z,19.23
2022-09-04T03:43:25.031Z,19.21
2022-09-04T03:48:41.862Z,19.13
2022-09-04T03:54:00.017Z,19.07
2022-09-04T03:59:05.756Z,19.07
2022-09-04T04:04:35.249Z,19.06
2022-09-04T04:09:57.443Z,19.09
2022-09-04T04:15:05.822Z,19.13
2022-09-04T04:20:18.470Z,19.12
2022-09-04T04:25:52.415Z,19.07
2022-09-04T04:31:05.523Z,19.11
2022-09-04T04:36:19.174Z,19.08
2022-09-04T04:41:24.177Z,19.07
2022-09-04T04:46:54.271Z,19.05
2022-09-04T04:52:06.207Z,19.05
2022-09-04T04:57:20.916Z,19.07
2022-09-04T05:02:36.577Z,19.09
2022-09-04T05:07:42.092Z,19.08
2022-09-04T05:13:04.054Z,19.07
2022-09-04T05:18:25.946Z,19.11
2022-09-04T05:23:47.116Z,19.08
2022-09-04T05:28:48.661Z,19.10
2022-09-04T05:34:07.745Z,19.11
2022-09-04T05:39:55.044Z,19.09
2022-09-04T05:45:06.610Z,19.08
2022-09-04T05:50:27.901Z,19.06
2022-09-04T05:55:44.430Z,19.05
2022-09-04T06:01:20.569Z,19.04
2022-09-04T06:06:48.140Z,19.01
2022-09-04T06:12:25.802Z,19.00
2022-09-04T06:18:05.942Z,19.01
2022-09-04T06:23:07.447Z,18.90
2022-09-04T06:28:26.228Z,18.93
2022-09-04T06:33:41.720Z,18.92
2022-09-04T06:39:07.917Z,18.83
2022-09-04T06:44:26.729Z,18.66
2022-09-04T06:50:06.870Z,18.60
2022-09-04T06:55:23.827Z,18.44
2022-09-04T07:00:29.556Z,18.35
2022-09-04T07:05:52.621Z,18.22
2022-09-04T07:11:31.879Z,18.04
2022-09-04T07:16:59.689Z,18.01
2022-09-04T07:22:35.652Z,17.95
2022-09-04T07:28:05.480Z,17.71
2022-09-04T07:33:12.600Z,17.68
2022-09-04T07:38:40.489Z,17.76
2022-09-04T07:43:55.392Z,17.76
2022-09-04T07:49:05.996Z,17.78
2022-09-04T07:54:29.706Z,17.89
2022-09-04T07:59:50.221Z,18.12
2022-09-04T08:05:10.113Z,18.19
2022-09-04T08:10:33.396Z,18.28
2022-09-04T08:15:43.409Z,18.43
2022-09-04T08:20:55.257Z,18.59
2022-09-04T08:26:20.011Z,18.90
2022-09-04T08:31:30.749Z,19.28
2022-09-04T08:37:01.478Z,19.35
2022-09-04T08:42:22.093Z,19.51
2022-09-04T08:47:52.861Z,19.74
2022-09-04T08:53:03.847Z,19.63
2022-09-04T08:58:35.857Z,19.53
2022-09-04T09:04:00.078Z,20.06
2022-09-04T09:09:31.773Z,20.24
2022-09-04T09:14:57.700Z,20.31
2022-09-04T09:20:14.847Z,19.79
2022-09-04T09:25:24.265Z,20.19
2022-09-04T09:30:46.843Z,20.36
2022-09-04T09:36:04.742Z,20.88
2022-09-04T09:41:37.450Z,20.69
2022-09-04T09:46:45.512Z,20.73
2022-09-04T09:52:09.202Z,20.92
2022-09-04T09:57:33.657Z,21.11
2022-09-04T10:03:00.129Z,21.14
2022-09-04T10:08:39.372Z,21.19
2022-09-04T10:14:10.881Z,21.04
2022-09-04T10:19:18.840Z,21.65
2022-09-04T10:24:42.233Z,21.50
2022-09-04T10:30:19.233Z,21.69
2022-09-04T10:35:22.128Z,21.19
2022-09-04T10:40:39.611Z,21.61
2022-09-04T10:46:23.672Z,21.74
2022-09-04T10:51:56.561Z,21.91
2022-09-04T10:57:35.124Z,22.00
2022-09-04T11:03:15.046Z,22.37
2022-09-04T11:08:28.824Z,22.11
2022-09-04T11:14:20.685Z,22.01
2022-09-04T11:20:00.593Z,22.15
2022-09-04T11:25:04.287Z,22.19
2022-09-04T11:30:22.483Z,22.41
2022-09-04T11:35:55.648Z,22.54
2022-09-04T11:41:21.650Z,22.48
2022-09-04T11:46:47.838Z,22.74
2022-09-04T11:52:05.676Z,22.78
2022-09-04T11:57:21.861Z,22.62
2022-09-04T12:02:38.763Z,22.71
2022-09-04T12:07:51.097Z,22.47
2022-09-04T12:13:15.749Z,22.78
2022-09-04T12:18:41.825Z,22.95
2022-09-04T12:24:18.237Z,22.94
2022-09-04T12:29:38.985Z,22.79
2022-09-04T12:34:43.852Z,22.70
2022-09-04T12:40:00.522Z,22.95
2022-09-04T12:45:24.513Z,23.00
2022-09-04T12:50:50.477Z,22.89
2022-09-04T12:56:05.797Z,23.02
2022-09-04T13:01:10.570Z,22.95
2022-09-04T13:06:53.485Z,22.86
2022-09-04T13:12:39.595Z,22.95
2022-09-04T13:17:53.136Z,22.99
2022-09-04T13:23:27.703Z,23.02
2022-09-04T13:28:46.059Z,23.13
2022-09-04T13:34:20.515Z,23.30
2022-09-04T13:39:46.375Z,23.36
2022-09-04T13:44:59.892Z,23.36
2022-09-04T13:50:17.902Z,23.39
2022-09-04T13:55:24.551Z,23.47
2022-09-04T14:00:28.833Z,23.55
2022-09-04T14:05:33.517Z,23.30
2022-09-04T14:10:56.831Z,23.61
2022-09-04T14:16:04.610Z,23.69
2022-09-04T14:21:13.932Z,23.84
2022-09-04T14:26:21.514Z,23.62
2022-09-04T14:31:40.395Z,23.57
2022-09-04T14:37:24.604Z,23.49
2022-09-04T14:42:42.203Z,23.08
2022-09-04T14:48:03.739Z,23.03
2022-09-04T14:53:08.466Z,23.20
2022-09-04T14:58:19.809Z,23.17
2022-09-04T15:03:28.854Z,23.33
2022-09-04T15:08:39.859Z,23.38
2022-09-04T15:13:54.022Z,23.37
2022-09-04T15:19:26.506Z,23.23
2022-09-04T15:24:35.041Z,23.33
2022-09-04T15:29:53.356Z,23.43
2022-09-04T15:35:20.004Z,23.58
2022-09-04T15:40:31.010Z,23.48
2022-09-04T15:45:40.818Z,23.39
2022-09-04T15:50:57.631Z,23.21
2022-09-04T15:56:23.824Z,23.11
2022-09-04T16:01:30.730Z,23.00
2022-09-04T16:06:57.769Z,22.84
2022-09-04T16:12:11.651Z,22.80
2022-09-04T16:17:20.696Z,22.67
2022-09-04T16:22:26.119Z,22.39
2022-09-04T16:27:29.280Z,22.32
2022-09-04T16:32:35.166Z,22.31
2022-09-04T16:37:38.948Z,22.28
2022-09-04T16:42:46.627Z,22.29
2022-09-04T16:48:15.785Z,22.21
2022-09-04T16:53:43.724Z,22.16
2022-09-04T16:59:00.131Z,22.19
2022-09-04T17:04:20.772Z,22.11
2022-09-04T17:10:04.218Z,22.03
2022-09-04T17:15:44.504Z,22.02
2022-09-04T17:26:26.743Z,21.99
2022-09-04T17:29:13.391Z,21.94
2022-09-04T17:36:23.604Z,21.86
2022-09-04T17:40:56.732Z,21.81
2022-09-04T17:45:01.483Z,21.83
2022-09-04T17:50:08.443Z,21.77
2022-09-04T17:55:13.538Z,21.76
2022-09-04T18:00:25.109Z,21.75
2022-09-04T18:05:51.672Z,21.64
2022-09-04T18:11:08.859Z,21.60
2022-09-04T18:16:47.689Z,21.44
2022-09-04T18:22:32.027Z,21.46
2022-09-04T18:27:45.471Z,21.43
2022-09-04T18:37:08.476Z,21.39
2022-09-04T18:39:08.467Z,21.36
2022-09-04T18:50:28.503Z,21.31
2022-09-04T18:50:32.005Z,21.30
2022-09-04T18:55:13.530Z,21.25
2022-09-04T19:00:25.913Z,21.17
2022-09-04T19:05:44.323Z,21.14
2022-09-04T19:10:52.525Z,21.10
2022-09-04T19:16:03.749Z,21.03
2022-09-04T19:21:14.519Z,20.98
2022-09-04T19:26:44.625Z,20.92
2022-09-04T19:32:08.338Z,20.87
2022-09-04T19:38:25.756Z,20.79
2022-09-04T19:46:14.249Z,20.76
2022-09-04T19:48:33.439Z,20.74
2022-09-04T19:53:49.459Z,20.67
2022-09-04T19:59:05.205Z,20.60
2022-09-04T20:04:25.092Z,20.57
2022-09-04T20:09:41.760Z,20.52
2022-09-04T20:15:02.728Z,20.44
2022-09-04T20:20:19.047Z,20.39
2022-09-04T20:25:24.479Z,20.18
2022-09-04T20:30:27.477Z,20.03
2022-09-04T20:35:41.054Z,20.07
2022-09-04T20:40:46.738Z,20.05
2022-09-04T20:48:45.658Z,19.98
2022-09-04T20:53:04.753Z,19.93
2022-09-04T21:03:11.375Z,19.73
2022-09-04T21:03:21.360Z,19.71
2022-09-04T21:08:35.250Z,19.65
2022-09-04T21:13:52.557Z,19.58
2022-09-04T21:19:28.748Z,19.49
2022-09-04T21:25:10.253Z,19.41
2022-09-04T21:30:15.223Z,19.26
2022-09-04T21:35:35.021Z,19.20
2022-09-04T21:40:51.236Z,19.16
2022-09-04T21:46:12.855Z,19.07
2022-09-04T21:51:43.133Z,19.01
2022-09-04T22:02:30.593Z,18.96
2022-09-04T22:02:57.812Z,18.90
2022-09-04T22:13:26.163Z,18.84
2022-09-04T22:14:10.541Z,18.79
2022-09-04T22:19:31.413Z,18.74
2022-09-04T22:24:57.182Z,18.68
2022-09-04T22:30:05.140Z,18.59
2022-09-04T22:35:34.203Z,18.56
2022-09-04T22:40:56.556Z,18.51
2022-09-04T22:46:32.030Z,18.44
2022-09-04T22:52:00.823Z,18.37
2022-09-04T22:57:08.204Z,18.30
2022-09-04T23:02:34.538Z,18.27
2022-09-04T23:13:47.051Z,18.22
2022-09-04T23:14:25.835Z,18.17
2022-09-04T23:26:30.891Z,18.10
2022-09-04T23:26:42.689Z,18.11
2022-09-04T23:31:29.755Z,18.11
2022-09-04T23:37:19.860Z,18.06
2022-09-04T23:42:51.876Z,18.04
2022-09-04T23:48:21.412Z,17.91
2022-09-04T23:53:42.045Z,17.75
2022-09-04T23:59:18.954Z,17.45
